McCarran International Airport
KLAS : rendu visible

Aérodrome :











RETROUVEZ-NOUS SUR...

 
LOGIN :

S'inscrire | Disclaimer

   EN    FR    IT 

 









Légende :    VFR   VFR Marginal   IFR   IFR Intensif   IFR Très Intensif
Visi : 
Plafond : 
>= 8 km
>= 3000ft
5 à 8 km
1000 à 3000 ft
1500m à 5 km
500 à 1000 ft
800 à 1500m
200 à 500 ft
< 800m
< 200 ft
Symboles :   Orages  Brouillard  Fortes neiges  Fortes précipitations  Vent > 20 kt






- Altitude de l'aérodrome : 2181 ft
- Code IATA : LAS


KLAS - McCarran International

DERNIER METAR :
  • 190356Z 28004KT 10SM SCT250 13/M10 A3002 RMK AO2 SLP163 T01281100

METARs EXPIRÉS :
  • 190256Z 00000KT 10SM BKN250 14/M11 A3002 RMK AO2 SLP161 T01391106 55000
  • 190156Z 00000KT 10SM BKN250 15/M11 A3001 RMK AO2 SLP157 T01501111

TAF KLAS
Valide du 19 à 03h jusqu'au 20 à 06h UTC


190251Z 1903/2006 21006KT P6SM SCT250
FM191500 VRB05KT P6SM FEW150
FM191800 05006KT P6SM FEW150
FM200300 21006KT P6SM SKC



MET'MAP, la Météo Aéronautique d'un coup d'oeil ! - Copyright ORBIFLY Décembre 2007 - Disclaimer

ORBIFLY MET'MAP TEAM :

Programmation & Développement : Alexandra Zaïnal
Sur une idée originale de : Baudouin d'Aumeries
Assistance à la programmation : Marc-Olivier Méhu
Soutien technique & logistique : Manuel Goepfert

Contact : metmap@orbifly.com




SOURCES & CREDITS :

   NOAA       Earth
Advisory